Weather at Laurence G Hanscom Field

Public forecast

Using degrees Fahrenheit for public forecast. Weather courtesy of forecast.io.

Current aviation weather report (METAR) for Laurence G Hanscom Field

Retrieved 2021/03/08 03:51 UTC (29 minutes ago):

KBED 080351Z 29003KT 10SM CLR M06/M11 A3032 RMK AO2 SLP283 T10561106

Aviation forecast (TAF) for Laurence G Hanscom Field

Retrieved 2021-03-08 00:36 UTC (4 hours ago):

TAF KBED 072333Z 0800/0824 32005KT P6SM SKC FM081800 29005KT P6SM SKC FM082300 24003KT P6SM FEW250